sensor_id;sensor_type;location;lat;lon;timestamp;pressure;altitude;pressure_sealevel;temperature;humidity
27202;BME280;14717;46.924;15.474;2023-02-03T00:00:45;98731.78;;;2.19;100.00
27202;BME280;14717;46.924;15.474;2023-02-03T00:03:11;98734.13;;;2.10;100.00
27202;BME280;14717;46.924;15.474;2023-02-03T00:05:37;98725.53;;;2.12;100.00
27202;BME280;14717;46.924;15.474;2023-02-03T00:08:04;98714.91;;;1.98;100.00
27202;BME280;14717;46.924;15.474;2023-02-03T00:10:33;98723.91;;;1.99;100.00
27202;BME280;14717;46.924;15.474;2023-02-03T00:12:59;98718.66;;;2.04;100.00
27202;BME280;14717;46.924;15.474;2023-02-03T00:15:24;98706.53;;;2.00;100.00
27202;BME280;14717;46.924;15.474;2023-02-03T00:17:50;98721.00;;;1.94;100.00
27202;BME280;14717;46.924;15.474;2023-02-03T00:20:16;98726.84;;;1.60;100.00
27202;BME280;14717;46.924;15.474;2023-02-03T00:22:41;98720.53;;;1.66;100.00
27202;BME280;14717;46.924;15.474;2023-02-03T00:25:09;98713.81;;;1.68;100.00
27202;BME280;14717;46.924;15.474;2023-02-03T00:27:34;98720.16;;;1.56;100.00
27202;BME280;14717;46.924;15.474;2023-02-03T00:30:00;98733.41;;;1.46;100.00
27202;BME280;14717;46.924;15.474;2023-02-03T00:32:26;98727.28;;;1.51;100.00
27202;BME280;14717;46.924;15.474;2023-02-03T00:34:51;98726.00;;;1.66;100.00
27202;BME280;14717;46.924;15.474;2023-02-03T00:37:16;98736.75;;;1.48;100.00
27202;BME280;14717;46.924;15.474;2023-02-03T00:39:42;98743.25;;;1.34;100.00
27202;BME280;14717;46.924;15.474;2023-02-03T00:42:07;98737.59;;;1.36;100.00
27202;BME280;14717;46.924;15.474;2023-02-03T00:44:32;98738.66;;;1.35;100.00
27202;BME280;14717;46.924;15.474;2023-02-03T00:46:58;98734.69;;;1.31;100.00
27202;BME280;14717;46.924;15.474;2023-02-03T00:49:24;98731.78;;;1.26;100.00
27202;BME280;14717;46.924;15.474;2023-02-03T00:51:49;98724.66;;;1.31;100.00
27202;BME280;14717;46.924;15.474;2023-02-03T00:54:15;98734.25;;;1.40;100.00
27202;BME280;14717;46.924;15.474;2023-02-03T00:56:41;98734.97;;;1.10;100.00
27202;BME280;14717;46.924;15.474;2023-02-03T00:59:06;98730.56;;;1.03;100.00
27202;BME280;14717;46.924;15.474;2023-02-03T01:01:33;98715.66;;;1.18;100.00
27202;BME280;14717;46.924;15.474;2023-02-03T01:03:58;98719.66;;;1.16;100.00
27202;BME280;14717;46.924;15.474;2023-02-03T01:06:24;98721.59;;;0.96;100.00
27202;BME280;14717;46.924;15.474;2023-02-03T01:08:50;98727.44;;;0.86;100.00
27202;BME280;14717;46.924;15.474;2023-02-03T01:11:19;98719.50;;;0.98;100.00
27202;BME280;14717;46.924;15.474;2023-02-03T01:13:44;98713.84;;;0.99;100.00
27202;BME280;14717;46.924;15.474;2023-02-03T01:16:12;98714.88;;;0.92;100.00
27202;BME280;14717;46.924;15.474;2023-02-03T01:18:38;98704.00;;;1.05;100.00
27202;BME280;14717;46.924;15.474;2023-02-03T01:21:08;98710.69;;;1.09;100.00
27202;BME280;14717;46.924;15.474;2023-02-03T01:23:36;98697.91;;;1.16;100.00
27202;BME280;14717;46.924;15.474;2023-02-03T01:26:07;98698.09;;;1.21;100.00
27202;BME280;14717;46.924;15.474;2023-02-03T01:28:33;98694.16;;;1.10;100.00
27202;BME280;14717;46.924;15.474;2023-02-03T01:31:11;98693.50;;;1.15;100.00
27202;BME280;14717;46.924;15.474;2023-02-03T01:33:37;98695.16;;;1.22;100.00
27202;BME280;14717;46.924;15.474;2023-02-03T01:36:06;98695.38;;;1.27;100.00
27202;BME280;14717;46.924;15.474;2023-02-03T01:38:32;98691.16;;;1.31;100.00
27202;BME280;14717;46.924;15.474;2023-02-03T01:40:57;98677.38;;;1.20;100.00
27202;BME280;14717;46.924;15.474;2023-02-03T01:43:35;98686.44;;;1.07;100.00
27202;BME280;14717;46.924;15.474;2023-02-03T01:46:04;98682.72;;;0.89;100.00
27202;BME280;14717;46.924;15.474;2023-02-03T01:48:32;98685.66;;;0.81;100.00
27202;BME280;14717;46.924;15.474;2023-02-03T01:51:03;98688.16;;;0.89;100.00
27202;BME280;14717;46.924;15.474;2023-02-03T01:53:29;98681.84;;;0.82;100.00
27202;BME280;14717;46.924;15.474;2023-02-03T01:55:56;98679.78;;;0.90;100.00
27202;BME280;14717;46.924;15.474;2023-02-03T01:58:29;98673.47;;;0.90;100.00
27202;BME280;14717;46.924;15.474;2023-02-03T02:00:57;98677.88;;;0.97;100.00
27202;BME280;14717;46.924;15.474;2023-02-03T02:03:33;98686.03;;;0.97;100.00
27202;BME280;14717;46.924;15.474;2023-02-03T02:06:06;98689.38;;;0.99;100.00
27202;BME280;14717;46.924;15.474;2023-02-03T02:08:32;98682.25;;;0.98;100.00
27202;BME280;14717;46.924;15.474;2023-02-03T02:11:00;98682.25;;;0.92;100.00
27202;BME280;14717;46.924;15.474;2023-02-03T02:13:31;98678.91;;;0.90;100.00
27202;BME280;14717;46.924;15.474;2023-02-03T02:16:08;98675.38;;;0.89;100.00
27202;BME280;14717;46.924;15.474;2023-02-03T02:21:23;98665.09;;;1.04;100.00
27202;BME280;14717;46.924;15.474;2023-02-03T02:35:08;98655.25;;;0.97;100.00
27202;BME280;14717;46.924;15.474;2023-02-03T02:40:50;98646.72;;;0.87;100.00
27202;BME280;14717;46.924;15.474;2023-02-03T02:43:38;98656.75;;;0.93;100.00
27202;BME280;14717;46.924;15.474;2023-02-03T02:46:12;98666.00;;;0.79;100.00
27202;BME280;14717;46.924;15.474;2023-02-03T02:48:55;98656.16;;;0.78;100.00
27202;BME280;14717;46.924;15.474;2023-02-03T02:51:22;98642.16;;;0.81;100.00
27202;BME280;14717;46.924;15.474;2023-02-03T02:53:55;98644.44;;;0.84;100.00
27202;BME280;14717;46.924;15.474;2023-02-03T02:56:22;98653.00;;;0.94;100.00
27202;BME280;14717;46.924;15.474;2023-02-03T02:58:50;98654.84;;;1.00;100.00
27202;BME280;14717;46.924;15.474;2023-02-03T03:01:17;98660.06;;;1.01;100.00
27202;BME280;14717;46.924;15.474;2023-02-03T03:03:43;98646.28;;;0.96;100.00
27202;BME280;14717;46.924;15.474;2023-02-03T03:06:23;98641.84;;;1.02;100.00
27202;BME280;14717;46.924;15.474;2023-02-03T03:09:03;98647.69;;;1.12;100.00
27202;BME280;14717;46.924;15.474;2023-02-03T03:11:34;98651.06;;;1.14;100.00
27202;BME280;14717;46.924;15.474;2023-02-03T03:14:03;98645.34;;;1.22;100.00
27202;BME280;14717;46.924;15.474;2023-02-03T03:16:34;98639.66;;;1.29;100.00
27202;BME280;14717;46.924;15.474;2023-02-03T03:19:09;98643.84;;;1.38;100.00
27202;BME280;14717;46.924;15.474;2023-02-03T03:21:43;98658.53;;;1.25;100.00
27202;BME280;14717;46.924;15.474;2023-02-03T03:24:15;98655.16;;;1.29;100.00
27202;BME280;14717;46.924;15.474;2023-02-03T03:29:34;98656.19;;;1.34;100.00
27202;BME280;14717;46.924;15.474;2023-02-03T03:32:02;98651.59;;;1.35;100.00
27202;BME280;14717;46.924;15.474;2023-02-03T03:34:28;98643.31;;;1.11;100.00
27202;BME280;14717;46.924;15.474;2023-02-03T03:37:00;98647.03;;;1.23;100.00
27202;BME280;14717;46.924;15.474;2023-02-03T03:39:42;98645.66;;;1.01;100.00
27202;BME280;14717;46.924;15.474;2023-02-03T03:42:22;98643.38;;;0.91;100.00
27202;BME280;14717;46.924;15.474;2023-02-03T03:45:08;98646.84;;;1.11;100.00
27202;BME280;14717;46.924;15.474;2023-02-03T03:48:15;98646.44;;;1.08;100.00
27202;BME280;14717;46.924;15.474;2023-02-03T03:50:54;98665.31;;;0.90;100.00
27202;BME280;14717;46.924;15.474;2023-02-03T03:53:22;98670.13;;;1.01;100.00
27202;BME280;14717;46.924;15.474;2023-02-03T03:55:49;98648.81;;;0.91;100.00
27202;BME280;14717;46.924;15.474;2023-02-03T03:58:23;98663.22;;;0.92;100.00
27202;BME280;14717;46.924;15.474;2023-02-03T04:00:53;98678.91;;;0.90;100.00
27202;BME280;14717;46.924;15.474;2023-02-03T04:03:22;98677.47;;;1.00;100.00
27202;BME280;14717;46.924;15.474;2023-02-03T04:05:49;98682.03;;;1.06;100.00
27202;BME280;14717;46.924;15.474;2023-02-03T04:08:14;98671.94;;;1.20;100.00
27202;BME280;14717;46.924;15.474;2023-02-03T04:10:41;98663.00;;;1.00;100.00
27202;BME280;14717;46.924;15.474;2023-02-03T04:13:08;98662.38;;;1.04;100.00
27202;BME280;14717;46.924;15.474;2023-02-03T04:15:34;98669.31;;;0.94;100.00
27202;BME280;14717;46.924;15.474;2023-02-03T04:18:00;98648.38;;;0.94;100.00
27202;BME280;14717;46.924;15.474;2023-02-03T04:20:30;98645.03;;;0.99;100.00
27202;BME280;14717;46.924;15.474;2023-02-03T04:22:57;98654.25;;;0.85;100.00
27202;BME280;14717;46.924;15.474;2023-02-03T04:25:23;98647.59;;;0.81;100.00
27202;BME280;14717;46.924;15.474;2023-02-03T04:27:49;98640.84;;;0.96;100.00
27202;BME280;14717;46.924;15.474;2023-02-03T04:30:14;98641.81;;;1.15;100.00
27202;BME280;14717;46.924;15.474;2023-02-03T04:32:43;98653.28;;;1.23;100.00
27202;BME280;14717;46.924;15.474;2023-02-03T04:35:08;98649.81;;;1.03;100.00
27202;BME280;14717;46.924;15.474;2023-02-03T04:37:34;98653.84;;;0.82;100.00
27202;BME280;14717;46.924;15.474;2023-02-03T04:39:59;98652.81;;;0.76;100.00
27202;BME280;14717;46.924;15.474;2023-02-03T04:42:25;98639.00;;;0.90;100.00
27202;BME280;14717;46.924;15.474;2023-02-03T04:44:50;98642.13;;;0.94;100.00
27202;BME280;14717;46.924;15.474;2023-02-03T04:47:17;98642.28;;;1.05;100.00
27202;BME280;14717;46.924;15.474;2023-02-03T04:49:42;98632.84;;;1.08;100.00
27202;BME280;14717;46.924;15.474;2023-02-03T04:52:08;98637.31;;;0.83;100.00
27202;BME280;14717;46.924;15.474;2023-02-03T04:54:33;98635.69;;;0.69;100.00
27202;BME280;14717;46.924;15.474;2023-02-03T04:56:59;98644.47;;;0.65;100.00
27202;BME280;14717;46.924;15.474;2023-02-03T04:59:24;98634.41;;;0.84;100.00
27202;BME280;14717;46.924;15.474;2023-02-03T05:01:50;98633.31;;;0.92;100.00
27202;BME280;14717;46.924;15.474;2023-02-03T05:04:16;98647.81;;;0.73;100.00
27202;BME280;14717;46.924;15.474;2023-02-03T05:06:41;98642.59;;;0.65;100.00
27202;BME280;14717;46.924;15.474;2023-02-03T05:09:06;98644.66;;;0.76;100.00
27202;BME280;14717;46.924;15.474;2023-02-03T05:11:32;98640.44;;;0.86;100.00
27202;BME280;14717;46.924;15.474;2023-02-03T05:13:57;98637.56;;;0.69;100.00
27202;BME280;14717;46.924;15.474;2023-02-03T05:16:23;98632.13;;;0.69;100.00
27202;BME280;14717;46.924;15.474;2023-02-03T05:18:48;98625.03;;;0.74;100.00
27202;BME280;14717;46.924;15.474;2023-02-03T05:21:14;98619.19;;;0.64;100.00
27202;BME280;14717;46.924;15.474;2023-02-03T05:23:39;98611.84;;;0.71;100.00
27202;BME280;14717;46.924;15.474;2023-02-03T05:26:05;98610.94;;;0.90;100.00
27202;BME280;14717;46.924;15.474;2023-02-03T05:28:30;98613.25;;;0.86;100.00
27202;BME280;14717;46.924;15.474;2023-02-03T05:30:59;98629.19;;;0.77;100.00
27202;BME280;14717;46.924;15.474;2023-02-03T05:33:25;98627.47;;;0.95;100.00
27202;BME280;14717;46.924;15.474;2023-02-03T05:35:51;98632.09;;;0.88;100.00
27202;BME280;14717;46.924;15.474;2023-02-03T05:38:16;98644.66;;;0.76;100.00
27202;BME280;14717;46.924;15.474;2023-02-03T05:40:41;98642.16;;;0.81;100.00
27202;BME280;14717;46.924;15.474;2023-02-03T05:43:26;98630.66;;;0.79;100.00
27202;BME280;14717;46.924;15.474;2023-02-03T05:45:52;98630.00;;;0.77;100.00
27202;BME280;14717;46.924;15.474;2023-02-03T05:48:17;98632.72;;;0.77;100.00
27202;BME280;14717;46.924;15.474;2023-02-03T05:50:42;98628.97;;;0.84;100.00
27202;BME280;14717;46.924;15.474;2023-02-03T05:53:08;98630.66;;;0.79;100.00
27202;BME280;14717;46.924;15.474;2023-02-03T05:55:34;98636.72;;;0.81;100.00
27202;BME280;14717;46.924;15.474;2023-02-03T05:58:00;98636.47;;;0.95;100.00
27202;BME280;14717;46.924;15.474;2023-02-03T06:00:26;98633.13;;;0.87;100.00
27202;BME280;14717;46.924;15.474;2023-02-03T06:02:53;98620.56;;;0.99;100.00
27202;BME280;14717;46.924;15.474;2023-02-03T06:05:19;98615.34;;;0.91;100.00
27202;BME280;14717;46.924;15.474;2023-02-03T06:07:44;98629.34;;;0.94;100.00
27202;BME280;14717;46.924;15.474;2023-02-03T06:10:09;98622.63;;;0.97;100.00
27202;BME280;14717;46.924;15.474;2023-02-03T06:12:36;98619.31;;;0.88;100.00
27202;BME280;14717;46.924;15.474;2023-02-03T06:15:02;98610.53;;;0.86;100.00
27202;BME280;14717;46.924;15.474;2023-02-03T06:17:38;98608.47;;;0.82;100.00
27202;BME280;14717;46.924;15.474;2023-02-03T06:20:07;98608.66;;;0.87;100.00
27202;BME280;14717;46.924;15.474;2023-02-03T06:22:59;98596.50;;;0.96;100.00
27202;BME280;14717;46.924;15.474;2023-02-03T06:25:57;98601.44;;;1.12;100.00
27202;BME280;14717;46.924;15.474;2023-02-03T06:28:25;98591.41;;;1.12;100.00
27202;BME280;14717;46.924;15.474;2023-02-03T06:30:50;98596.84;;;1.19;100.00
27202;BME280;14717;46.924;15.474;2023-02-03T06:33:18;98591.84;;;1.09;100.00
27202;BME280;14717;46.924;15.474;2023-02-03T06:35:43;98591.81;;;1.16;100.00
27202;BME280;14717;46.924;15.474;2023-02-03T06:38:09;98586.81;;;1.13;100.00
27202;BME280;14717;46.924;15.474;2023-02-03T06:40:34;98580.94;;;1.16;100.00
27202;BME280;14717;46.924;15.474;2023-02-03T06:43:00;98583.91;;;1.08;100.00
27202;BME280;14717;46.924;15.474;2023-02-03T06:45:25;98589.75;;;1.05;100.00
27202;BME280;14717;46.924;15.474;2023-02-03T06:47:50;98596.84;;;1.19;100.00
27202;BME280;14717;46.924;15.474;2023-02-03T06:50:16;98582.59;;;1.17;100.00
27202;BME280;14717;46.924;15.474;2023-02-03T06:52:41;98569.38;;;1.27;100.00
27202;BME280;14717;46.924;15.474;2023-02-03T06:55:07;98565.34;;;1.35;100.00
27202;BME280;14717;46.924;15.474;2023-02-03T06:57:32;98566.19;;;1.36;100.00
27202;BME280;14717;46.924;15.474;2023-02-03T06:59:58;98578.38;;;1.27;100.00
27202;BME280;14717;46.924;15.474;2023-02-03T07:02:23;98581.56;;;1.18;100.00
27202;BME280;14717;46.924;15.474;2023-02-03T07:04:49;98574.69;;;1.15;100.00
27202;BME280;14717;46.924;15.474;2023-02-03T07:07:15;98578.81;;;1.24;100.00
27202;BME280;14717;46.924;15.474;2023-02-03T07:09:41;98592.81;;;1.27;100.00
27202;BME280;14717;46.924;15.474;2023-02-03T07:12:07;98579.56;;;1.37;100.00
27202;BME280;14717;46.924;15.474;2023-02-03T07:14:33;98575.94;;;1.50;100.00
27202;BME280;14717;46.924;15.474;2023-02-03T07:17:00;98568.19;;;1.53;100.00
27202;BME280;14717;46.924;15.474;2023-02-03T07:19:26;98568.69;;;1.37;100.00
27202;BME280;14717;46.924;15.474;2023-02-03T07:21:51;98560.66;;;1.49;100.00
27202;BME280;14717;46.924;15.474;2023-02-03T07:24:17;98571.28;;;1.57;100.00
27202;BME280;14717;46.924;15.474;2023-02-03T07:26:42;98556.25;;;1.48;100.00
27202;BME280;14717;46.924;15.474;2023-02-03T07:29:07;98550.41;;;1.44;100.00
27202;BME280;14717;46.924;15.474;2023-02-03T07:31:33;98561.94;;;1.46;100.00
27202;BME280;14717;46.924;15.474;2023-02-03T07:33:59;98565.88;;;1.50;100.00
27202;BME280;14717;46.924;15.474;2023-02-03T07:36:25;98564.38;;;1.54;100.00
27202;BME280;14717;46.924;15.474;2023-02-03T07:38:53;98567.28;;;1.59;100.00
27202;BME280;14717;46.924;15.474;2023-02-03T07:41:18;98551.34;;;1.63;100.00
27202;BME280;14717;46.924;15.474;2023-02-03T07:43:44;98558.13;;;1.54;100.00
27202;BME280;14717;46.924;15.474;2023-02-03T07:46:09;98552.03;;;1.58;100.00
27202;BME280;14717;46.924;15.474;2023-02-03T07:48:35;98540.22;;;1.64;100.00
27202;BME280;14717;46.924;15.474;2023-02-03T07:51:00;98542.09;;;1.70;100.00
27202;BME280;14717;46.924;15.474;2023-02-03T07:53:25;98522.84;;;1.65;100.00
27202;BME280;14717;46.924;15.474;2023-02-03T07:55:51;98511.09;;;1.71;100.00
27202;BME280;14717;46.924;15.474;2023-02-03T07:58:16;98513.81;;;1.71;100.00
27202;BME280;14717;46.924;15.474;2023-02-03T08:00:42;98515.41;;;1.78;100.00
27202;BME280;14717;46.924;15.474;2023-02-03T08:03:07;98521.41;;;1.87;100.00
27202;BME280;14717;46.924;15.474;2023-02-03T08:05:33;98532.25;;;1.93;100.00
27202;BME280;14717;46.924;15.474;2023-02-03T08:07:58;98530.72;;;1.79;100.00
27202;BME280;14717;46.924;15.474;2023-02-03T08:10:24;98529.59;;;1.87;100.00
27202;BME280;14717;46.924;15.474;2023-02-03T08:12:54;98543.88;;;2.07;100.00
27202;BME280;14717;46.924;15.474;2023-02-03T08:15:20;98545.38;;;2.03;100.00
27202;BME280;14717;46.924;15.474;2023-02-03T08:17:47;98547.66;;;2.06;100.00
27202;BME280;14717;46.924;15.474;2023-02-03T08:20:13;98559.56;;;2.11;100.00
27202;BME280;14717;46.924;15.474;2023-02-03T08:22:38;98563.78;;;1.83;100.00
27202;BME280;14717;46.924;15.474;2023-02-03T08:25:04;98568.47;;;1.69;100.00
27202;BME280;14717;46.924;15.474;2023-02-03T08:27:30;98550.41;;;1.75;100.00
27202;BME280;14717;46.924;15.474;2023-02-03T08:29:57;98545.66;;;1.95;100.00
27202;BME280;14717;46.924;15.474;2023-02-03T08:32:22;98560.09;;;1.71;100.00
27202;BME280;14717;46.924;15.474;2023-02-03T08:34:49;98544.22;;;1.92;100.00
27202;BME280;14717;46.924;15.474;2023-02-03T08:37:17;98548.88;;;2.10;100.00
27202;BME280;14717;46.924;15.474;2023-02-03T08:39:43;98548.75;;;2.22;100.00
27202;BME280;14717;46.924;15.474;2023-02-03T08:42:09;98548.25;;;2.32;100.00
27202;BME280;14717;46.924;15.474;2023-02-03T08:44:34;98554.69;;;2.37;100.00
27202;BME280;14717;46.924;15.474;2023-02-03T08:47:00;98559.66;;;2.22;100.00
27202;BME280;14717;46.924;15.474;2023-02-03T08:49:28;98564.44;;;2.03;100.00
27202;BME280;14717;46.924;15.474;2023-02-03T08:51:54;98558.16;;;1.78;100.00
27202;BME280;14717;46.924;15.474;2023-02-03T08:54:20;98546.94;;;1.92;100.00
27202;BME280;14717;46.924;15.474;2023-02-03T08:56:46;98552.53;;;1.73;100.00
27202;BME280;14717;46.924;15.474;2023-02-03T08:59:12;98537.25;;;1.72;100.00
27202;BME280;14717;46.924;15.474;2023-02-03T09:01:39;98546.09;;;1.92;100.00
27202;BME280;14717;46.924;15.474;2023-02-03T09:04:05;98529.97;;;2.14;100.00
27202;BME280;14717;46.924;15.474;2023-02-03T09:06:33;98525.13;;;2.16;100.00
27202;BME280;14717;46.924;15.474;2023-02-03T09:08:58;98513.19;;;2.17;100.00
27202;BME280;14717;46.924;15.474;2023-02-03T09:11:24;98523.91;;;2.37;100.00
27202;BME280;14717;46.924;15.474;2023-02-03T09:13:49;98519.50;;;2.53;100.00
27202;BME280;14717;46.924;15.474;2023-02-03T09:16:16;98524.13;;;2.53;100.00
27202;BME280;14717;46.924;15.474;2023-02-03T09:18:43;98512.00;;;2.49;100.00
27202;BME280;14717;46.924;15.474;2023-02-03T09:21:10;98506.78;;;2.48;100.00
27202;BME280;14717;46.924;15.474;2023-02-03T09:23:36;98505.88;;;2.53;100.00
27202;BME280;14717;46.924;15.474;2023-02-03T09:26:03;98516.69;;;2.42;100.00
27202;BME280;14717;46.924;15.474;2023-02-03T09:28:31;98518.34;;;2.43;100.00
27202;BME280;14717;46.924;15.474;2023-02-03T09:31:00;98512.31;;;2.59;100.00
27202;BME280;14717;46.924;15.474;2023-02-03T09:33:26;98508.31;;;2.61;100.00
27202;BME280;14717;46.924;15.474;2023-02-03T09:35:52;98506.41;;;2.80;100.00
27202;BME280;14717;46.924;15.474;2023-02-03T09:38:18;98505.31;;;2.81;100.00
27202;BME280;14717;46.924;15.474;2023-02-03T09:40:46;98504.63;;;3.03;100.00
27202;BME280;14717;46.924;15.474;2023-02-03T09:49:01;98492.19;;;3.36;100.00
27202;BME280;14717;46.924;15.474;2023-02-03T09:51:39;98500.78;;;3.51;100.00
27202;BME280;14717;46.924;15.474;2023-02-03T09:54:21;98485.34;;;3.56;100.00
27202;BME280;14717;46.924;15.474;2023-02-03T09:56:49;98473.88;;;3.66;100.00
27202;BME280;14717;46.924;15.474;2023-02-03T09:59:26;98466.47;;;3.55;100.00
27202;BME280;14717;46.924;15.474;2023-02-03T10:04:42;98478.31;;;3.78;100.00
27202;BME280;14717;46.924;15.474;2023-02-03T10:10:04;98477.94;;;3.34;100.00
27202;BME280;14717;46.924;15.474;2023-02-03T10:12:47;98462.72;;;3.79;100.00
27202;BME280;14717;46.924;15.474;2023-02-03T10:18:18;98454.16;;;3.64;100.00
27202;BME280;14717;46.924;15.474;2023-02-03T10:20:49;98450.28;;;3.31;100.00
27202;BME280;14717;46.924;15.474;2023-02-03T10:23:29;98448.28;;;3.08;100.00
27202;BME280;14717;46.924;15.474;2023-02-03T10:25:56;98449.03;;;3.15;100.00
27202;BME280;14717;46.924;15.474;2023-02-03T10:28:27;98435.16;;;3.17;100.00
27202;BME280;14717;46.924;15.474;2023-02-03T10:31:01;98428.25;;;3.55;100.00
27202;BME280;14717;46.924;15.474;2023-02-03T10:33:32;98426.16;;;3.68;100.00
27202;BME280;14717;46.924;15.474;2023-02-03T10:36:21;98421.69;;;3.44;100.00
27202;BME280;14717;46.924;15.474;2023-02-03T10:41:17;98406.88;;;3.75;100.00
27202;BME280;14717;46.924;15.474;2023-02-03T10:43:45;98384.81;;;3.87;100.00
27202;BME280;14717;46.924;15.474;2023-02-03T10:46:36;98387.59;;;4.38;100.00
27202;BME280;14717;46.924;15.474;2023-02-03T10:49:03;98381.13;;;4.05;100.00
27202;BME280;14717;46.924;15.474;2023-02-03T10:51:35;98378.75;;;4.59;100.00
27202;BME280;14717;46.924;15.474;2023-02-03T10:54:01;98358.25;;;5.00;100.00
27202;BME280;14717;46.924;15.474;2023-02-03T10:56:34;98346.41;;;5.11;99.92
27202;BME280;14717;46.924;15.474;2023-02-03T10:59:00;98326.97;;;5.29;97.62
27202;BME280;14717;46.924;15.474;2023-02-03T11:01:41;98314.22;;;5.34;96.55
27202;BME280;14717;46.924;15.474;2023-02-03T11:04:30;98312.78;;;5.64;97.08
27202;BME280;14717;46.924;15.474;2023-02-03T11:07:04;98319.94;;;5.82;96.37
27202;BME280;14717;46.924;15.474;2023-02-03T11:09:36;98324.59;;;5.81;92.85
27202;BME280;14717;46.924;15.474;2023-02-03T11:12:12;98333.31;;;5.78;94.71
27202;BME280;14717;46.924;15.474;2023-02-03T11:14:40;98325.41;;;5.65;97.09
27202;BME280;14717;46.924;15.474;2023-02-03T11:17:14;98312.63;;;5.87;96.64
27202;BME280;14717;46.924;15.474;2023-02-03T11:19:43;98309.06;;;5.70;93.95
27202;BME280;14717;46.924;15.474;2023-02-03T11:22:09;98303.38;;;5.93;95.38
27202;BME280;14717;46.924;15.474;2023-02-03T11:24:40;98299.72;;;5.88;94.93
27202;BME280;14717;46.924;15.474;2023-02-03T11:27:10;98305.88;;;5.94;96.99
27202;BME280;14717;46.924;15.474;2023-02-03T11:29:46;98281.66;;;5.87;96.07
27202;BME280;14717;46.924;15.474;2023-02-03T11:32:31;98267.38;;;6.27;95.76
27202;BME280;14717;46.924;15.474;2023-02-03T11:35:00;98288.75;;;6.46;94.69
27202;BME280;14717;46.924;15.474;2023-02-03T11:37:40;98259.47;;;6.57;93.52
27202;BME280;14717;46.924;15.474;2023-02-03T11:42:31;98264.59;;;6.48;94.84
27202;BME280;14717;46.924;15.474;2023-02-03T11:45:16;98246.88;;;6.82;92.44
27202;BME280;14717;46.924;15.474;2023-02-03T12:06:59;98195.78;;;7.99;88.60
27202;BME280;14717;46.924;15.474;2023-02-03T12:28:56;98159.94;;;8.55;84.52
27202;BME280;14717;46.924;15.474;2023-02-03T12:31:37;98134.63;;;8.58;83.29
27202;BME280;14717;46.924;15.474;2023-02-03T12:42:13;98117.00;;;8.69;82.37
27202;BME280;14717;46.924;15.474;2023-02-03T12:47:41;98109.28;;;8.81;83.62
27202;BME280;14717;46.924;15.474;2023-02-03T12:50:16;98080.91;;;8.70;81.98
27202;BME280;14717;46.924;15.474;2023-02-03T12:53:09;98082.56;;;8.71;82.12
27202;BME280;14717;46.924;15.474;2023-02-03T12:55:35;98072.38;;;8.82;83.13
27202;BME280;14717;46.924;15.474;2023-02-03T12:58:09;98049.25;;;8.88;81.30
27202;BME280;14717;46.924;15.474;2023-02-03T13:00:50;98063.00;;;9.02;81.44
27202;BME280;14717;46.924;15.474;2023-02-03T13:03:27;98034.88;;;9.05;81.08
27202;BME280;14717;46.924;15.474;2023-02-03T13:06:09;98023.31;;;8.98;81.31
27202;BME280;14717;46.924;15.474;2023-02-03T13:08:40;98034.00;;;9.15;82.55
27202;BME280;14717;46.924;15.474;2023-02-03T13:11:33;98012.78;;;9.30;79.79
27202;BME280;14717;46.924;15.474;2023-02-03T13:14:27;98008.28;;;9.49;79.52
27202;BME280;14717;46.924;15.474;2023-02-03T13:16:58;98004.50;;;9.30;79.12
27202;BME280;14717;46.924;15.474;2023-02-03T13:19:33;98012.72;;;9.45;79.24
27202;BME280;14717;46.924;15.474;2023-02-03T13:22:09;97997.31;;;9.29;78.85
27202;BME280;14717;46.924;15.474;2023-02-03T13:24:35;97989.03;;;9.34;79.63
27202;BME280;14717;46.924;15.474;2023-02-03T13:43:18;97909.75;;;9.59;79.17
27202;BME280;14717;46.924;15.474;2023-02-03T13:45:46;97914.41;;;9.64;79.56
27202;BME280;14717;46.924;15.474;2023-02-03T13:48:18;97911.03;;;9.76;77.37
27202;BME280;14717;46.924;15.474;2023-02-03T13:50:47;97900.53;;;9.78;80.07
27202;BME280;14717;46.924;15.474;2023-02-03T13:53:20;97905.00;;;9.70;80.15
27202;BME280;14717;46.924;15.474;2023-02-03T13:55:59;97911.34;;;9.70;80.18
27202;BME280;14717;46.924;15.474;2023-02-03T13:58:30;97918.91;;;9.55;80.48
27202;BME280;14717;46.924;15.474;2023-02-03T14:01:00;97907.91;;;9.50;79.32
27202;BME280;14717;46.924;15.474;2023-02-03T14:05:55;97902.91;;;9.52;78.28
27202;BME280;14717;46.924;15.474;2023-02-03T14:16:38;97884.94;;;9.59;76.14
27202;BME280;14717;46.924;15.474;2023-02-03T14:21:55;97882.25;;;9.49;75.69
27202;BME280;14717;46.924;15.474;2023-02-03T14:24:33;97861.06;;;9.45;74.43
27202;BME280;14717;46.924;15.474;2023-02-03T14:27:02;97847.91;;;9.32;74.94
27202;BME280;14717;46.924;15.474;2023-02-03T14:29:31;97832.19;;;9.32;76.54
27202;BME280;14717;46.924;15.474;2023-02-03T14:34:42;97814.34;;;9.25;76.38
27202;BME280;14717;46.924;15.474;2023-02-03T14:37:25;97803.78;;;9.37;76.04
27202;BME280;14717;46.924;15.474;2023-02-03T14:45:19;97765.84;;;9.19;74.09
27202;BME280;14717;46.924;15.474;2023-02-03T14:53:36;97756.03;;;9.03;70.39
27202;BME280;14717;46.924;15.474;2023-02-03T14:58:57;97747.81;;;8.98;70.26
27202;BME280;14717;46.924;15.474;2023-02-03T15:09:15;97741.78;;;8.91;71.00
27202;BME280;14717;46.924;15.474;2023-02-03T15:11:45;97747.38;;;8.82;70.85
27202;BME280;14717;46.924;15.474;2023-02-03T15:14:28;97744.66;;;8.72;71.99
27202;BME280;14717;46.924;15.474;2023-02-03T15:16:59;97744.66;;;8.77;69.73
27202;BME280;14717;46.924;15.474;2023-02-03T15:19:28;97739.09;;;8.82;70.99
27202;BME280;14717;46.924;15.474;2023-02-03T15:21:54;97739.16;;;8.72;71.60
27202;BME280;14717;46.924;15.474;2023-02-03T15:24:21;97741.91;;;8.72;71.33
27202;BME280;14717;46.924;15.474;2023-02-03T15:26:53;97739.19;;;8.67;71.76